Data for 05/22/2007

Time Sea-Level Adjusted Pressure Absolute Pressure Temperature Relative Humidity Dew Point   
(mb) (inHg) (mb) (inHg) (C) (F) (%) (C) (F)
00:05 1012 29.88 841 24.83 4.2 39.5 90 2.7 36.8
00:10 1012 29.88 841 24.83 4.2 39.6 90 2.6 36.8
00:15 1012 29.88 841 24.83 4.3 39.7 89 2.6 36.7
00:20 1012 29.88 842 24.86 4.2 39.5 89 2.6 36.6
00:25 1012 29.88 842 24.86 4 39.3 90 2.6 36.6
00:30 1012 29.88 842 24.86 3.9 39.1 91 2.5 36.5
00:35 1012 29.88 841 24.83 4 39.1 90 2.5 36.5
00:40 1012 29.88 841 24.83 3.9 39 89 2.3 36.1
00:45 1012 29.88 841 24.83 3.6 38.4 90 2.1 35.7
00:50 1012 29.88 841 24.83 3.5 38.4 90 2.1 35.8
00:55 1012 29.88 841 24.83 3.5 38.3 91 2.1 35.8
01:00 1012 29.88 841 24.83 3.4 38.1 91 2 35.7
01:05 1012 29.88 841 24.83 3.4 38.1 91 2 35.6
01:10 1012 29.88 841 24.83 3.3 38 91 2 35.6
01:15 1012 29.88 841 24.83 3.4 38 91 2.1 35.7
01:20 1012 29.88 841 24.83 3.5 38.2 91 2.1 35.8
01:25 1012 29.88 841 24.83 3.5 38.3 91 2.1 35.9
01:30 1012 29.88 841 24.83 3.4 38.1 91 2.1 35.8
01:35 1012 29.88 841 24.83 3.4 38.2 92 2.2 36
01:40 1012 29.88 841 24.83 3.5 38.2 92 2.2 36
01:45 1012 29.88 841 24.83 3.5 38.3 92 2.3 36.1
01:50 1012 29.88 842 24.86 3.5 38.4 92 2.3 36.2
01:55 1012 29.88 842 24.86 3.6 38.4 90 2 35.7
02:00 1012 29.88 842 24.86 3.4 38.1 89 1.8 35.2
02:05 1012 29.88 842 24.86 3.4 38.1 90 1.9 35.4
02:10 1012 29.88 842 24.86 3.4 38.2 89 1.8 35.2
02:15 1012 29.88 842 24.86 3.3 37.9 89 1.6 34.9
02:20 1012 29.88 841 24.83 3.1 37.6 90 1.6 34.8
02:25 1012 29.88 841 24.83 3 37.4 90 1.5 34.8
02:30 1012 29.88 841 24.83 3 37.4 90 1.6 34.9
02:35 1012 29.88 842 24.86 2.9 37.2 90 1.4 34.5
02:40 1012 29.88 842 24.86 2.8 37 90 1.3 34.3
02:45 1012 29.88 842 24.86 2.7 36.9 90 1.2 34.2
02:50 1013 29.91 842 24.86 2.7 36.9 89 1.1 34
02:55 1013 29.91 842 24.86 2.7 36.8 90 1.2 34.2
03:00 1012 29.88 842 24.86 2.8 37 90 1.3 34.3
03:05 1012 29.88 842 24.86 2.7 36.9 90 1.2 34.1
03:10 1013 29.91 842 24.86 2.6 36.6 90 1.1 34
03:15 1013 29.91 842 24.86 2.5 36.5 91 1.2 34.1
03:20 1013 29.91 842 24.86 2.5 36.6 90 1.1 34
03:25 1012 29.88 842 24.86 2.5 36.5 90 1.1 34
03:30 1012 29.88 842 24.86 2.5 36.6 91 1.2 34.1
03:35 1012 29.88 842 24.86 2.6 36.6 91 1.3 34.3
03:40 1013 29.91 842 24.86 2.8 37 90 1.3 34.4
03:45 1013 29.91 842 24.86 2.8 37 90 1.3 34.4
03:50 1013 29.91 842 24.86 2.8 37 90 1.3 34.4
03:55 1013 29.91 842 24.86 2.9 37.3 89 1.3 34.4
04:00 1013 29.91 842 24.86 2.9 37.3 88 1.2 34.1
04:05 1013 29.91 842 24.86 2.9 37.1 88 1 33.8
04:10 1013 29.91 842 24.86 2.7 36.9 88 0.9 33.7
04:15 1013 29.91 842 24.86 2.7 36.8 88 0.9 33.5
04:20 1013 29.91 842 24.86 2.6 36.6 89 0.9 33.6
04:25 1013 29.91 842 24.86 2.5 36.5 89 0.9 33.6
04:30 1013 29.91 842 24.86 2.5 36.5 89 0.9 33.5
04:35 1013 29.91 842 24.86 2.5 36.5 89 0.8 33.4
04:40 1013 29.91 842 24.86 2.6 36.6 88 0.8 33.4
04:45 1013 29.91 842 24.86 2.6 36.6 88 0.8 33.5
04:50 1013 29.91 842 24.86 2.6 36.7 88 0.8 33.5
04:55 1013 29.91 842 24.86 2.5 36.6 88 0.7 33.3
05:00 1013 29.91 842 24.86 2.5 36.5 89 0.8 33.4
05:05 1013 29.91 842 24.86 2.4 36.4 89 0.8 33.4
05:10 1013 29.91 842 24.86 2.4 36.4 89 0.8 33.5
05:15 1013 29.91 842 24.86 2.5 36.5 89 0.9 33.6
05:20 1013 29.91 842 24.86 2.5 36.5 89 0.9 33.5
05:25 1013 29.91 842 24.86 2.4 36.4 90 0.9 33.6
05:30 1013 29.91 842 24.86 2.3 36.2 89 0.8 33.4
05:35 1013 29.91 842 24.86 2.2 35.9 90 0.8 33.4
05:40 1013 29.91 842 24.86 2.2 36 90 0.8 33.4
05:45 1013 29.91 842 24.86 2.3 36.1 90 0.8 33.5
05:50 1013 29.91 842 24.86 2.2 36 90 0.8 33.4
05:55 1013 29.91 842 24.86 2.2 35.9 91 0.8 33.4
06:00 1013 29.91 842 24.86 2.3 36.1 90 0.8 33.5
06:05 1013 29.91 842 24.86 2.3 36.2 90 0.9 33.6
06:10 1013 29.91 842 24.86 2.3 36.2 90 0.9 33.7
06:15 1013 29.91 842 24.86 2.3 36.1 91 0.9 33.6
06:20 1013 29.91 842 24.86 2.2 35.9 91 0.8 33.5
06:25 1013 29.91 842 24.86 2.3 36.2 90 0.8 33.5
06:30 1013 29.91 842 24.86 2.4 36.3 89 0.8 33.5
06:35 1013 29.91 842 24.86 2.4 36.4 89 0.8 33.4
06:40 1013 29.91 842 24.86 2.3 36.2 89 0.6 33.2
06:45 1013 29.91 843 24.89 2.2 36 89 0.6 33.1
06:50 1013 29.91 843 24.89 2.3 36.1 90 0.8 33.4
06:55 1013 29.91 843 24.89 2.3 36.1 89 0.7 33.2
07:00 1013 29.91 843 24.89 2.1 35.9 90 0.7 33.2
07:05 1013 29.91 843 24.89 2.2 35.9 91 0.8 33.5
07:10 1013 29.91 843 24.89 2.2 36 91 0.9 33.7
07:15 1014 29.94 843 24.89 2.2 35.9 91 0.9 33.6
07:20 1013 29.91 843 24.89 1.8 35.2 92 0.6 33.1
07:25 1013 29.91 843 24.89 1.4 34.5 93 0.4 32.7
07:30 1013 29.91 843 24.89 1.2 34.1 94 0.3 32.5
07:35 1014 29.94 843 24.89 1.1 34.1 94 0.3 32.6
07:40 1014 29.94 843 24.89 1.2 34.1 94 0.4 32.7
07:45 1014 29.94 843 24.89 1.3 34.4 94 0.5 32.9
07:50 1014 29.94 843 24.89 1.3 34.3 94 0.4 32.8
07:55 1014 29.94 843 24.89 1.4 34.5 95 0.6 33
08:00 1014 29.94 843 24.89 1.6 34.8 94 0.7 33.2
08:05 1014 29.94 843 24.89 1.7 35 93 0.7 33.2
08:10 1014 29.94 843 24.89 1.7 35 93 0.6 33.1
08:15 1014 29.94 843 24.89 1.6 34.9 93 0.5 33
08:20 1014 29.94 843 24.89 1.6 34.8 93 0.6 33.1
08:25 1014 29.94 843 24.89 1.7 35 93 0.6 33.1
08:30 1014 29.94 843 24.89 1.8 35.2 92 0.6 33.1
08:35 1014 29.94 843 24.89 1.9 35.5 91 0.6 33.2
08:40 1014 29.94 843 24.89 1.9 35.4 92 0.6 33.2
08:45 1014 29.94 843 24.89 1.8 35.3 92 0.7 33.3
08:50 1014 29.94 843 24.89 1.9 35.5 92 0.7 33.3
08:55 1014 29.94 843 24.89 1.9 35.4 92 0.7 33.3
09:00 1014 29.94 843 24.89 1.9 35.4 92 0.8 33.4
09:05 1014 29.94 843 24.89 1.9 35.5 93 0.9 33.6
09:10 1014 29.94 843 24.89 2 35.6 92 0.9 33.6
09:15 1014 29.94 843 24.89 1.9 35.4 93 0.9 33.7
09:20 1014 29.94 843 24.89 1.9 35.4 93 0.9 33.5
09:25 1014 29.94 843 24.89 1.9 35.3 93 0.9 33.6
09:30 1014 29.94 843 24.89 1.9 35.4 93 0.9 33.6
09:35 1014 29.94 843 24.89 1.9 35.4 93 0.9 33.6
09:40 1014 29.94 843 24.89 1.9 35.5 93 1 33.7
09:45 1014 29.94 843 24.89 2 35.6 93 1 33.9
09:50 1014 29.94 844 24.92 1.9 35.5 93 1 33.7
09:55 1014 29.94 844 24.92 2 35.6 93 1 33.8
10:00 1014 29.94 844 24.92 2 35.6 93 1 33.8
10:05 1014 29.94 844 24.92 2 35.7 93 1 33.8
10:10 1014 29.94 844 24.92 2.1 35.8 93 1.1 33.9
10:15 1014 29.94 844 24.92 2.1 35.8 93 1.1 33.9
10:20 1014 29.94 844 24.92 2.1 35.7 93 1 33.8
10:25 1014 29.94 844 24.92 2.2 35.9 93 1.1 34
10:30 1014 29.94 844 24.92 2.2 35.9 93 1.1 34
10:35 1014 29.94 844 24.92 2.2 35.9 93 1.1 34
10:40 1015 29.97 844 24.92 2.3 36.1 93 1.2 34.2
10:45 1015 29.97 844 24.92 2.2 36 92 1.1 34
10:50 1015 29.97 844 24.92 2.2 36 93 1.2 34.1
10:55 1015 29.97 844 24.92 2.1 35.8 93 1.1 34
11:00 1015 29.97 844 24.92 2.1 35.8 93 1.1 34
11:05 1015 29.97 844 24.92 2.1 35.8 93 1.1 34.1
11:10 1015 29.97 844 24.92 2.1 35.8 93 1.1 33.9
11:15 1015 29.97 844 24.92 2.2 35.9 93 1.2 34.1
11:20 1015 29.97 844 24.92 2.3 36.1 93 1.2 34.2
11:25 1015 29.97 844 24.92 2.3 36.1 92 1.1 34.1
11:30 1015 29.97 844 24.92 2.3 36.1 93 1.3 34.3
11:35 1015 29.97 844 24.92 2.3 36.1 93 1.2 34.2
11:40 1015 29.97 844 24.92 2.3 36.1 92 1.2 34.1
11:45 1015 29.97 844 24.92 2.2 36 93 1.3 34.3
11:50 1015 29.97 844 24.92 2.3 36.2 93 1.3 34.3
11:55 1015 29.97 844 24.92 2.5 36.5 93 1.5 34.7
12:00 1015 29.97 844 24.92 2.6 36.6 93 1.5 34.7
12:05 1015 29.97 844 24.92 2.7 36.8 93 1.6 35
12:10 1015 29.97 844 24.92 2.9 37.2 93 1.8 35.3
12:15 1015 29.97 844 24.92 3 37.4 92 1.8 35.3
12:20 1015 29.97 844 24.92 2.9 37.1 92 1.7 35.1
12:25 1015 29.97 844 24.92 2.7 36.8 92 1.5 34.7
12:30 1015 29.97 844 24.92 2.7 36.8 92 1.6 34.8
12:35 1015 29.97 844 24.92 2.7 36.8 92 1.5 34.8
12:40 1015 29.97 844 24.92 2.6 36.7 93 1.6 34.8
12:45 1015 29.97 844 24.92 2.7 36.8 93 1.7 35.1
12:50 1015 29.97 844 24.92 2.8 37 92 1.6 34.8
12:55 1015 29.97 845 24.95 2.7 36.9 92 1.6 34.8
13:00 1015 29.97 845 24.95 2.7 36.9 92 1.6 34.9
13:05 1015 29.97 845 24.95 2.9 37.2 92 1.6 34.9
13:10 1015 29.97 845 24.95 2.8 37.1 92 1.6 34.9
13:15 1015 29.97 845 24.95 2.8 37.1 92 1.7 35
13:20 1015 29.97 845 24.95 2.9 37.3 91 1.6 34.9
13:25 1015 29.97 845 24.95 3 37.4 91 1.6 34.9
13:30 1015 29.97 845 24.95 2.8 37 92 1.5 34.7
13:35 1015 29.97 845 24.95 2.5 36.4 92 1.3 34.3
13:40 1015 29.97 845 24.95 2.4 36.3 92 1.2 34.2
13:45 1015 29.97 845 24.95 2.4 36.4 91 1.1 34
13:50 1015 29.97 845 24.95 2.3 36.1 92 1.1 33.9
13:55 1015 29.97 845 24.95 2.1 35.7 92 0.9 33.6
14:00 1015 29.97 845 24.95 2 35.6 92 0.9 33.6
14:05 1016 30 845 24.95 1.9 35.5 93 1 33.8
14:10 1015 29.97 845 24.95 1.7 35.1 93 0.8 33.4
14:15 1015 29.97 845 24.95 1.3 34.4 94 0.5 32.9
14:20 1015 29.97 845 24.95 1.2 34.2 96 0.6 33.2
14:25 1015 29.97 845 24.95 1.6 34.8 96 1 33.7
14:30 1015 29.97 845 24.95 1.9 35.5 96 1.3 34.4
14:35 1015 29.97 845 24.95 2.4 36.3 95 1.7 35
14:40 1015 29.97 845 24.95 2.8 37.1 94 1.9 35.4
14:45 1015 29.97 845 24.95 3 37.3 93 1.9 35.5
14:50 1015 29.97 845 24.95 3.1 37.5 93 2 35.7
14:55 1015 29.97 845 24.95 3.3 37.9 93 2.3 36.1
15:00 1015 29.97 845 24.95 2.9 37.3 90 1.5 34.7
15:05 1016 30 845 24.95 2 35.6 94 1.1 33.9
15:10 1016 30 845 24.95 1.7 35 95 1 33.7
15:15 1016 30 845 24.95 2 35.6 96 1.4 34.5
15:20 1016 30 845 24.95 2.4 36.4 96 1.8 35.3
15:25 1016 30 845 24.95 3 37.4 95 2.4 36.2
15:30 1016 30 845 24.95 3.3 38 94 2.4 36.4
15:35 1016 30 845 24.95 2.6 36.6 92 1.5 34.6
15:40 1016 30 845 24.95 1.8 35.3 95 1.1 34
15:45 1016 30 845 24.95 1.8 35.3 96 1.2 34.2
15:50 1016 30 845 24.95 2.2 36 95 1.5 34.7
15:55 1016 30 845 24.95 2.2 35.9 95 1.4 34.5
16:00 1016 30 845 24.95 2.2 36 95 1.5 34.7
16:05 1016 30 845 24.95 2.2 36 95 1.4 34.6
16:10 1016 30 845 24.95 2.1 35.8 95 1.5 34.6
16:15 1016 30 845 24.95 2.5 36.5 94 1.7 35
16:20 1016 30 845 24.95 2.8 37 94 1.9 35.5
16:25 1016 30 845 24.95 2.9 37.3 93 1.9 35.3
16:30 1016 30 845 24.95 2.8 37 94 2 35.5
16:35 1016 30 845 24.95 3.2 37.7 93 2.1 35.7
16:40 1016 30 846 24.98 3.5 38.3 91 2.2 35.9
16:45 1016 30 846 24.98 3.5 38.3 91 2.1 35.8
16:50 1016 30 846 24.98 3.2 37.8 91 2 35.5
16:55 1016 30 846 24.98 3 37.4 92 1.8 35.2
17:00 1016 30 846 24.98 3 37.5 93 2 35.5
17:05 1017 30.03 846 24.98 3 37.5 92 1.8 35.3
17:10 1016 30 846 24.98 3 37.4 92 1.9 35.4
17:15 1017 30.03 846 24.98 3.1 37.5 93 2.1 35.7
17:20 1016 30 846 24.98 3.1 37.6 93 2.1 35.7
17:25 1017 30.03 846 24.98 3.3 37.9 93 2.2 35.9
17:30 1016 30 846 24.98 3.2 37.7 93 2.2 35.9
17:35 1017 30.03 846 24.98 3.3 38 93 2.3 36.2
17:40 1017 30.03 846 24.98 3.4 38.1 93 2.3 36.2
17:45 1017 30.03 846 24.98 3.4 38 92 2.2 36
17:50 1017 30.03 846 24.98 2.6 36.6 92 1.4 34.5
17:55 1017 30.03 846 24.98 2 35.5 95 1.3 34.4
18:00 1017 30.03 846 24.98 2.4 36.4 96 1.8 35.3
18:05 1017 30.03 846 24.98 2.9 37.2 96 2.2 36
18:10 1017 30.03 846 24.98 3.2 37.8 95 2.6 36.6
18:15 1017 30.03 846 24.98 3.5 38.2 95 2.7 36.9
18:20 1017 30.03 846 24.98 3.6 38.4 94 2.7 36.9
18:25 1017 30.03 846 24.98 3.6 38.4 93 2.6 36.6
18:30 1017 30.03 846 24.98 3.6 38.4 93 2.6 36.6
18:35 1017 30.03 846 24.98 3.2 37.8 92 2.1 35.8
18:40 1017 30.03 846 24.98 2.9 37.3 94 2 35.6
18:45 1017 30.03 846 24.98 2.8 37.1 94 1.9 35.5
18:50 1017 30.03 846 24.98 2.9 37.3 94 2.1 35.7
18:55 1017 30.03 846 24.98 3.1 37.6 94 2.2 35.9
19:00 1017 30.03 846 24.98 3.2 37.7 92 2 35.6
19:05 1017 30.03 846 24.98 3.2 37.8 92 2.1 35.8
19:10 1017 30.03 847 25.01 3.2 37.8 93 2.1 35.8
19:15 1017 30.03 847 25.01 3.4 38.1 92 2.2 36
19:20 1017 30.03 847 25.01 3.5 38.4 91 2.2 36
19:25 1018 30.06 847 25.01 3.5 38.3 90 2.1 35.7
19:30 1018 30.06 847 25.01 3.5 38.4 91 2.2 35.9
19:35 1018 30.06 847 25.01 3.5 38.4 91 2.2 35.9
19:40 1018 30.06 847 25.01 3.5 38.4 91 2.2 36
19:45 1018 30.06 847 25.01 3.6 38.4 91 2.2 36
19:50 1018 30.06 847 25.01 3.5 38.3 91 2.2 36
19:55 1018 30.06 847 25.01 3.4 38 91 2 35.6
20:00 1018 30.06 847 25.01 2.9 37.2 92 1.7 35.1
20:05 1018 30.06 847 25.01 2.6 36.7 93 1.6 34.9
20:10 1018 30.06 847 25.01 2.6 36.6 93 1.6 34.9
20:15 1018 30.06 847 25.01 2.6 36.7 94 1.7 35.1
20:20 1018 30.06 847 25.01 2.7 36.9 94 1.8 35.2
20:25 1018 30.06 847 25.01 2.7 36.9 94 1.8 35.2
20:30 1018 30.06 848 25.04 2.7 36.9 94 1.8 35.3
20:35 1018 30.06 848 25.04 2.9 37.1 93 1.9 35.4
20:40 1018 30.06 848 25.04 2.9 37.2 93 1.9 35.3
20:45 1018 30.06 848 25.04 2.9 37.1 93 1.8 35.3
20:50 1018 30.06 848 25.04 2.9 37.1 93 1.8 35.3
20:55 1018 30.06 848 25.04 2.8 37.1 93 1.9 35.4
21:00 1019 30.09 848 25.04 2.9 37.2 93 1.9 35.4
21:05 1019 30.09 848 25.04 3 37.4 93 2 35.7
21:10 1019 30.09 848 25.04 3.1 37.6 93 2.1 35.8
21:15 1019 30.09 848 25.04 3 37.5 93 2.1 35.7
21:20 1019 30.09 848 25.04 3 37.4 93 2 35.6
21:25 1019 30.09 848 25.04 2.9 37.2 94 2 35.6
21:30 1019 30.09 848 25.04 2.8 37 93 1.7 35.1
21:35 1019 30.09 848 25.04 2.6 36.7 93 1.6 34.9
21:40 1019 30.09 848 25.04 2.5 36.6 93 1.6 34.8
21:45 1019 30.09 848 25.04 2.6 36.7 93 1.6 34.9
21:50 1019 30.09 848 25.04 2.7 36.8 93 1.6 34.9
21:55 1019 30.09 848 25.04 2.8 37 92 1.6 35
22:00 1019 30.09 848 25.04 2.8 37 92 1.6 35
22:05 1019 30.09 848 25.04 2.8 37 92 1.6 34.8
22:10 1019 30.09 848 25.04 2.8 37 92 1.5 34.8
22:15 1019 30.09 848 25.04 2.8 37.1 91 1.6 34.8
22:20 1019 30.09 849 25.07 2.8 37.1 92 1.6 34.9
22:25 1019 30.09 849 25.07 2.8 37.1 91 1.6 34.8
22:30 1019 30.09 849 25.07 2.8 37 92 1.6 34.9
22:35 1019 30.09 849 25.07 2.9 37.3 92 1.8 35.2
22:40 1020 30.12 849 25.07 3 37.4 91 1.8 35.2
22:45 1020 30.12 849 25.07 3.1 37.6 91 1.8 35.2
22:50 1020 30.12 849 25.07 3.2 37.7 91 1.8 35.3
22:55 1020 30.12 849 25.07 3.2 37.8 91 1.8 35.3
23:00 1020 30.12 849 25.07 3.2 37.8 91 1.8 35.3
23:05 1020 30.12 849 25.07 3.3 37.9 90 1.8 35.3
23:10 1020 30.12 849 25.07 3.2 37.8 90 1.8 35.2
23:15 1020 30.12 849 25.07 3.3 37.9 90 1.8 35.2
23:20 1020 30.12 849 25.07 3.3 37.9 90 1.8 35.2
23:25 1020 30.12 849 25.07 3.2 37.8 89 1.6 34.9
23:30 1020 30.12 849 25.07 3.2 37.7 90 1.6 34.9
23:35 1020 30.12 849 25.07 3.2 37.7 90 1.6 34.9
23:40 1020 30.12 849 25.07 3.1 37.5 89 1.5 34.7
23:45 1020 30.12 849 25.07 3.1 37.5 90 1.5 34.8
23:50 1020 30.12 849 25.07 3.1 37.5 90 1.6 34.8
23:55 1020 30.12 849 25.07 3.1 37.6 90 1.6 34.9
24:00 1020 30.12 849 25.07 3 37.4 91 1.6 34.9